sensor_id;sensor_type;location;lat;lon;timestamp;pressure;altitude;pressure_sealevel;temperature;humidity
32735;BME280;19112;51.076;3.706;2022-09-13T00:00:43;100930.06;;;21.75;66.74
32735;BME280;19112;51.076;3.706;2022-09-13T00:03:11;100865.44;;;21.39;66.95
32735;BME280;19112;51.076;3.706;2022-09-13T00:05:38;100826.47;;;21.16;67.18
32735;BME280;19112;51.076;3.706;2022-09-13T00:08:05;100332.44;;;18.41;66.94
32735;BME280;19112;51.076;3.706;2022-09-13T00:10:34;100856.50;;;21.41;67.08
32735;BME280;19112;51.076;3.706;2022-09-13T00:13:03;100555.84;;;19.71;67.15
32735;BME280;19112;51.076;3.706;2022-09-13T00:15:29;100889.25;;;21.59;67.42
32735;BME280;19112;51.076;3.706;2022-09-13T00:17:54;100765.41;;;20.84;67.48
32735;BME280;19112;51.076;3.706;2022-09-13T00:20:20;100868.84;;;21.50;67.64
32735;BME280;19112;51.076;3.706;2022-09-13T00:22:46;100736.19;;;20.71;67.76
32735;BME280;19112;51.076;3.706;2022-09-13T00:25:12;100737.97;;;20.73;68.17
32735;BME280;19112;51.076;3.706;2022-09-13T00:27:38;100694.63;;;20.51;68.12
32735;BME280;19112;51.076;3.706;2022-09-13T00:30:06;100827.25;;;21.25;68.44
32735;BME280;19112;51.076;3.706;2022-09-13T00:32:34;100852.09;;;21.37;68.58
32735;BME280;19112;51.076;3.706;2022-09-13T00:35:01;100821.09;;;21.21;68.76
32735;BME280;19112;51.076;3.706;2022-09-13T00:37:27;100621.25;;;20.06;68.78
32735;BME280;19112;51.076;3.706;2022-09-13T00:39:53;100798.97;;;21.10;68.83
32735;BME280;19112;51.076;3.706;2022-09-13T00:42:25;100868.19;;;21.30;69.09
32735;BME280;19112;51.076;3.706;2022-09-13T00:47:38;100865.38;;;21.47;69.44
32735;BME280;19112;51.076;3.706;2022-09-13T00:50:22;100868.03;;;21.47;69.16
32735;BME280;19112;51.076;3.706;2022-09-13T00:53:12;100668.06;;;20.33;69.53
32735;BME280;19112;51.076;3.706;2022-09-13T00:56:05;100866.28;;;21.42;69.53
32735;BME280;19112;51.076;3.706;2022-09-13T00:58:40;100796.47;;;20.95;69.75
32735;BME280;19112;51.076;3.706;2022-09-13T01:01:11;100739.91;;;20.57;69.83
32735;BME280;19112;51.076;3.706;2022-09-13T01:03:39;100622.28;;;19.89;70.21
32735;BME280;19112;51.076;3.706;2022-09-13T01:06:15;100617.94;;;19.79;70.00
32735;BME280;19112;51.076;3.706;2022-09-13T01:08:45;100641.75;;;19.96;70.34
32735;BME280;19112;51.076;3.706;2022-09-13T01:11:27;100683.31;;;20.20;70.25
32735;BME280;19112;51.076;3.706;2022-09-13T01:13:54;100180.84;;;17.28;70.31
32735;BME280;19112;51.076;3.706;2022-09-13T01:16:22;100604.66;;;19.73;70.47
32735;BME280;19112;51.076;3.706;2022-09-13T01:18:48;100629.50;;;19.78;70.71
32735;BME280;19112;51.076;3.706;2022-09-13T01:30:24;100728.72;;;20.09;71.35
32735;BME280;19112;51.076;3.706;2022-09-13T01:39:03;100895.22;;;20.91;72.00
32735;BME280;19112;51.076;3.706;2022-09-13T01:50:45;100730.56;;;20.03;71.99
32735;BME280;19112;51.076;3.706;2022-09-13T01:53:20;100786.31;;;20.32;72.01
32735;BME280;19112;51.076;3.706;2022-09-13T01:56:25;100775.72;;;20.24;72.13
32735;BME280;19112;51.076;3.706;2022-09-13T02:01:40;100891.59;;;21.02;72.12
32735;BME280;19112;51.076;3.706;2022-09-13T02:04:14;100893.41;;;21.00;72.10
32735;BME280;19112;51.076;3.706;2022-09-13T02:07:08;100726.09;;;20.05;71.97
32735;BME280;19112;51.076;3.706;2022-09-13T02:09:45;100864.19;;;20.80;72.24
32735;BME280;19112;51.076;3.706;2022-09-13T02:12:18;100604.94;;;19.33;72.00
32735;BME280;19112;51.076;3.706;2022-09-13T02:15:21;100902.25;;;21.02;72.31
32735;BME280;19112;51.076;3.706;2022-09-13T02:18:09;100828.81;;;20.55;72.19
32735;BME280;19112;51.076;3.706;2022-09-13T02:20:43;100727.13;;;19.87;72.25
32735;BME280;19112;51.076;3.706;2022-09-13T02:23:18;100906.94;;;20.75;72.20
32735;BME280;19112;51.076;3.706;2022-09-13T02:25:48;100688.25;;;19.51;72.29
32735;BME280;19112;51.076;3.706;2022-09-13T02:28:21;100809.56;;;20.11;72.14
32735;BME280;19112;51.076;3.706;2022-09-13T02:30:51;100643.09;;;19.28;72.06
32735;BME280;19112;51.076;3.706;2022-09-13T02:33:30;100752.91;;;19.83;71.88
32735;BME280;19112;51.076;3.706;2022-09-13T02:36:04;100880.47;;;20.46;72.27
32735;BME280;19112;51.076;3.706;2022-09-13T02:38:47;100937.91;;;20.93;72.18
32735;BME280;19112;51.076;3.706;2022-09-13T02:41:32;100935.25;;;20.91;72.06
32735;BME280;19112;51.076;3.706;2022-09-13T02:44:22;100919.41;;;20.72;71.83
32735;BME280;19112;51.076;3.706;2022-09-13T02:47:09;100928.16;;;20.92;71.70
32735;BME280;19112;51.076;3.706;2022-09-13T02:56:01;100829.84;;;20.35;71.49
32735;BME280;19112;51.076;3.706;2022-09-13T03:01:16;100667.84;;;19.44;71.31
32735;BME280;19112;51.076;3.706;2022-09-13T03:03:42;100733.41;;;19.75;71.54
32735;BME280;19112;51.076;3.706;2022-09-13T03:06:09;100918.44;;;20.83;71.57
32735;BME280;19112;51.076;3.706;2022-09-13T03:08:36;100832.50;;;20.34;71.80
32735;BME280;19112;51.076;3.706;2022-09-13T03:11:22;100676.69;;;19.49;71.62
32735;BME280;19112;51.076;3.706;2022-09-13T03:20:13;100757.28;;;19.91;71.57
32735;BME280;19112;51.076;3.706;2022-09-13T03:26:25;100890.88;;;20.80;71.92
32735;BME280;19112;51.076;3.706;2022-09-13T03:29:09;100911.34;;;20.79;71.89
32735;BME280;19112;51.076;3.706;2022-09-13T03:32:32;100890.88;;;20.81;71.91
32735;BME280;19112;51.076;3.706;2022-09-13T03:35:36;100797.91;;;20.23;71.98
32735;BME280;19112;51.076;3.706;2022-09-13T03:38:17;100782.03;;;20.08;71.85
32735;BME280;19112;51.076;3.706;2022-09-13T03:40:52;100843.97;;;20.45;72.13
32735;BME280;19112;51.076;3.706;2022-09-13T03:44:02;100757.22;;;19.97;72.13
32735;BME280;19112;51.076;3.706;2022-09-13T03:46:40;100762.59;;;19.94;72.10
32735;BME280;19112;51.076;3.706;2022-09-13T03:49:14;100898.06;;;20.73;72.29
32735;BME280;19112;51.076;3.706;2022-09-13T03:51:45;100659.03;;;19.37;72.28
32735;BME280;19112;51.076;3.706;2022-09-13T03:54:27;100813.03;;;20.26;72.50
32735;BME280;19112;51.076;3.706;2022-09-13T03:57:12;100881.25;;;20.60;72.56
32735;BME280;19112;51.076;3.706;2022-09-13T03:59:45;100724.59;;;19.62;72.89
32735;BME280;19112;51.076;3.706;2022-09-13T04:02:11;100841.41;;;20.36;73.02
32735;BME280;19112;51.076;3.706;2022-09-13T04:04:42;100467.19;;;18.23;72.71
32735;BME280;19112;51.076;3.706;2022-09-13T04:07:10;100590.06;;;18.97;72.82
32735;BME280;19112;51.076;3.706;2022-09-13T04:09:37;100750.19;;;19.86;72.93
32735;BME280;19112;51.076;3.706;2022-09-13T04:12:04;100707.75;;;19.59;72.87
32735;BME280;19112;51.076;3.706;2022-09-13T04:14:30;100509.66;;;18.39;72.90
32735;BME280;19112;51.076;3.706;2022-09-13T04:16:56;100580.34;;;18.89;72.87
32735;BME280;19112;51.076;3.706;2022-09-13T04:19:24;100690.91;;;19.51;73.07
32735;BME280;19112;51.076;3.706;2022-09-13T04:21:52;100885.69;;;20.60;73.04
32735;BME280;19112;51.076;3.706;2022-09-13T04:24:18;100418.59;;;17.89;72.83
32735;BME280;19112;51.076;3.706;2022-09-13T04:26:49;100604.25;;;19.02;72.77
32735;BME280;19112;51.076;3.706;2022-09-13T04:29:20;100765.31;;;19.84;73.05
32735;BME280;19112;51.076;3.706;2022-09-13T04:31:48;100794.50;;;20.04;72.97
32735;BME280;19112;51.076;3.706;2022-09-13T04:34:14;100919.47;;;20.64;72.86
32735;BME280;19112;51.076;3.706;2022-09-13T04:36:41;100883.97;;;20.53;73.17
32735;BME280;19112;51.076;3.706;2022-09-13T04:39:07;100777.69;;;19.98;72.88
32735;BME280;19112;51.076;3.706;2022-09-13T04:41:33;100892.75;;;20.65;72.93
32735;BME280;19112;51.076;3.706;2022-09-13T04:44:00;100899.00;;;20.67;73.04
32735;BME280;19112;51.076;3.706;2022-09-13T04:46:27;100665.28;;;19.31;72.92
32735;BME280;19112;51.076;3.706;2022-09-13T04:48:55;100907.88;;;20.70;73.20
32735;BME280;19112;51.076;3.706;2022-09-13T04:51:21;100923.00;;;20.69;73.14
32735;BME280;19112;51.076;3.706;2022-09-13T04:53:51;100884.88;;;20.52;73.13
32735;BME280;19112;51.076;3.706;2022-09-13T04:56:18;100773.38;;;19.77;73.23
32735;BME280;19112;51.076;3.706;2022-09-13T04:58:45;100836.19;;;20.16;73.35
32735;BME280;19112;51.076;3.706;2022-09-13T05:01:11;100742.31;;;19.70;73.26
32735;BME280;19112;51.076;3.706;2022-09-13T05:03:37;100673.31;;;19.28;73.31
32735;BME280;19112;51.076;3.706;2022-09-13T05:06:13;100431.03;;;17.90;73.18
32735;BME280;19112;51.076;3.706;2022-09-13T05:08:40;100768.88;;;19.80;73.40
32735;BME280;19112;51.076;3.706;2022-09-13T05:11:06;100629.06;;;19.01;73.19
32735;BME280;19112;51.076;3.706;2022-09-13T05:13:33;100831.72;;;20.24;73.44
32735;BME280;19112;51.076;3.706;2022-09-13T05:16:03;100583.94;;;18.78;72.97
32735;BME280;19112;51.076;3.706;2022-09-13T05:18:31;100838.81;;;20.25;73.27
32735;BME280;19112;51.076;3.706;2022-09-13T05:20:59;100880.44;;;20.45;73.50
32735;BME280;19112;51.076;3.706;2022-09-13T05:23:28;100929.19;;;20.71;73.57
32735;BME280;19112;51.076;3.706;2022-09-13T05:25:59;100921.19;;;20.71;73.44
32735;BME280;19112;51.076;3.706;2022-09-13T05:28:31;100473.44;;;18.10;73.15
32735;BME280;19112;51.076;3.706;2022-09-13T05:31:07;100756.47;;;19.78;73.55
32735;BME280;19112;51.076;3.706;2022-09-13T05:33:36;100922.06;;;20.73;73.63
32735;BME280;19112;51.076;3.706;2022-09-13T05:36:04;100760.97;;;19.68;73.69
32735;BME280;19112;51.076;3.706;2022-09-13T05:38:30;100935.44;;;20.69;73.83
32735;BME280;19112;51.076;3.706;2022-09-13T05:41:02;100779.53;;;19.85;73.76
32735;BME280;19112;51.076;3.706;2022-09-13T05:43:32;100674.19;;;19.24;73.56
32735;BME280;19112;51.076;3.706;2022-09-13T05:46:12;100837.03;;;20.24;73.54
32735;BME280;19112;51.076;3.706;2022-09-13T05:48:38;100505.25;;;18.33;73.50
32735;BME280;19112;51.076;3.706;2022-09-13T05:51:14;100632.56;;;19.09;73.63
32735;BME280;19112;51.076;3.706;2022-09-13T05:53:43;100877.75;;;20.45;73.75
32735;BME280;19112;51.076;3.706;2022-09-13T05:56:12;100962.00;;;20.87;73.71
32735;BME280;19112;51.076;3.706;2022-09-13T05:58:41;100689.22;;;19.39;73.46
32735;BME280;19112;51.076;3.706;2022-09-13T06:01:09;100951.31;;;20.90;73.75
32735;BME280;19112;51.076;3.706;2022-09-13T06:03:35;100788.31;;;20.04;73.45
32735;BME280;19112;51.076;3.706;2022-09-13T06:06:02;100839.63;;;20.35;73.63
32735;BME280;19112;51.076;3.706;2022-09-13T06:08:30;100798.88;;;20.13;73.21
32735;BME280;19112;51.076;3.706;2022-09-13T06:13:27;100805.00;;;20.30;73.21
32735;BME280;19112;51.076;3.706;2022-09-13T06:15:55;100911.22;;;20.93;73.19
32735;BME280;19112;51.076;3.706;2022-09-13T06:18:22;100552.88;;;18.85;72.99
32735;BME280;19112;51.076;3.706;2022-09-13T06:20:49;100960.81;;;21.23;72.94
32735;BME280;19112;51.076;3.706;2022-09-13T06:23:16;100734.19;;;19.89;72.70
32735;BME280;19112;51.076;3.706;2022-09-13T06:25:42;100483.81;;;18.62;72.36
32735;BME280;19112;51.076;3.706;2022-09-13T06:28:08;100822.50;;;20.65;72.51
32735;BME280;19112;51.076;3.706;2022-09-13T06:30:34;100805.69;;;20.58;72.39
32735;BME280;19112;51.076;3.706;2022-09-13T06:33:00;100742.81;;;20.25;72.11
32735;BME280;19112;51.076;3.706;2022-09-13T06:35:26;100877.25;;;21.09;71.64
32735;BME280;19112;51.076;3.706;2022-09-13T06:37:56;100859.56;;;21.00;71.28
32735;BME280;19112;51.076;3.706;2022-09-13T06:40:23;100941.03;;;21.45;71.62
32735;BME280;19112;51.076;3.706;2022-09-13T06:42:49;100801.16;;;20.65;71.71
32735;BME280;19112;51.076;3.706;2022-09-13T06:45:15;100824.94;;;20.92;71.61
32735;BME280;19112;51.076;3.706;2022-09-13T06:47:41;100834.50;;;21.15;71.46
32735;BME280;19112;51.076;3.706;2022-09-13T06:50:08;100936.22;;;21.78;71.25
32735;BME280;19112;51.076;3.706;2022-09-13T06:52:34;100815.69;;;21.26;71.17
32735;BME280;19112;51.076;3.706;2022-09-13T06:55:00;100940.41;;;22.02;70.78
32735;BME280;19112;51.076;3.706;2022-09-13T06:57:29;100914.56;;;22.03;70.20
32735;BME280;19112;51.076;3.706;2022-09-13T06:59:55;100879.06;;;21.91;69.94
32735;BME280;19112;51.076;3.706;2022-09-13T07:02:21;100761.28;;;21.36;69.39
32735;BME280;19112;51.076;3.706;2022-09-13T07:04:46;100795.66;;;21.65;69.02
32735;BME280;19112;51.076;3.706;2022-09-13T07:07:12;100676.19;;;21.04;68.82
32735;BME280;19112;51.076;3.706;2022-09-13T07:09:38;100946.72;;;22.63;68.45
32735;BME280;19112;51.076;3.706;2022-09-13T07:12:05;100792.59;;;21.92;68.10
32735;BME280;19112;51.076;3.706;2022-09-13T07:14:31;100863.22;;;22.41;67.66
32735;BME280;19112;51.076;3.706;2022-09-13T07:16:57;100938.31;;;22.90;67.35
32735;BME280;19112;51.076;3.706;2022-09-13T07:19:25;100893.94;;;22.72;67.18
32735;BME280;19112;51.076;3.706;2022-09-13T07:21:52;100866.53;;;22.57;66.85
32735;BME280;19112;51.076;3.706;2022-09-13T07:24:19;100893.09;;;22.70;66.50
32735;BME280;19112;51.076;3.706;2022-09-13T07:26:46;100751.34;;;22.09;65.76
32735;BME280;19112;51.076;3.706;2022-09-13T07:29:16;100929.97;;;23.09;65.89
32735;BME280;19112;51.076;3.706;2022-09-13T07:31:47;100945.50;;;23.41;65.62
32735;BME280;19112;51.076;3.706;2022-09-13T07:34:19;100760.53;;;22.49;65.28
32735;BME280;19112;51.076;3.706;2022-09-13T07:36:45;100744.75;;;22.33;64.64
32735;BME280;19112;51.076;3.706;2022-09-13T07:39:15;100941.38;;;23.71;64.42
32735;BME280;19112;51.076;3.706;2022-09-13T07:41:42;100758.50;;;22.62;63.75
32735;BME280;19112;51.076;3.706;2022-09-13T07:44:10;100837.03;;;23.14;63.74
32735;BME280;19112;51.076;3.706;2022-09-13T07:46:36;100939.25;;;23.88;63.57
32735;BME280;19112;51.076;3.706;2022-09-13T07:49:04;100469.44;;;21.26;63.06
32735;BME280;19112;51.076;3.706;2022-09-13T07:51:33;100790.28;;;23.30;62.83
32735;BME280;19112;51.076;3.706;2022-09-13T07:54:03;100936.81;;;24.18;62.41
32735;BME280;19112;51.076;3.706;2022-09-13T07:56:34;100884.16;;;23.72;62.43
32735;BME280;19112;51.076;3.706;2022-09-13T07:59:03;100956.28;;;24.29;62.44
32735;BME280;19112;51.076;3.706;2022-09-13T08:01:35;100881.09;;;23.90;62.16
32735;BME280;19112;51.076;3.706;2022-09-13T08:04:06;100907.19;;;24.24;61.87
32735;BME280;19112;51.076;3.706;2022-09-13T08:06:34;100872.16;;;24.30;61.55
32735;BME280;19112;51.076;3.706;2022-09-13T08:09:01;100949.53;;;24.90;61.31
32735;BME280;19112;51.076;3.706;2022-09-13T08:11:31;100915.56;;;24.88;61.03
32735;BME280;19112;51.076;3.706;2022-09-13T08:13:58;100951.50;;;25.19;60.67
32735;BME280;19112;51.076;3.706;2022-09-13T08:16:25;100876.00;;;24.93;60.37
32735;BME280;19112;51.076;3.706;2022-09-13T08:18:56;100755.31;;;24.17;60.43
32735;BME280;19112;51.076;3.706;2022-09-13T08:21:24;100952.75;;;25.40;60.40
32735;BME280;19112;51.076;3.706;2022-09-13T08:23:56;100903.19;;;25.18;60.43
32735;BME280;19112;51.076;3.706;2022-09-13T08:26:28;100812.78;;;24.45;60.42
32735;BME280;19112;51.076;3.706;2022-09-13T08:29:00;100737.34;;;23.83;60.77
32735;BME280;19112;51.076;3.706;2022-09-13T08:31:27;100956.25;;;25.10;61.27
32735;BME280;19112;51.076;3.706;2022-09-13T08:33:54;100803.69;;;24.14;61.28
32735;BME280;19112;51.076;3.706;2022-09-13T08:36:21;100699.38;;;23.63;60.91
32735;BME280;19112;51.076;3.706;2022-09-13T08:38:51;100845.63;;;24.56;61.32
32735;BME280;19112;51.076;3.706;2022-09-13T08:50:23;100805.91;;;24.32;61.22
32735;BME280;19112;51.076;3.706;2022-09-13T08:56:12;100758.50;;;23.95;61.36
32735;BME280;19112;51.076;3.706;2022-09-13T08:59:04;100822.34;;;24.57;61.16
32735;BME280;19112;51.076;3.706;2022-09-13T09:07:20;100921.66;;;25.30;60.15
32735;BME280;19112;51.076;3.706;2022-09-13T09:10:14;100954.53;;;25.41;59.67
32735;BME280;19112;51.076;3.706;2022-09-13T09:12:56;100873.97;;;25.02;59.67
32735;BME280;19112;51.076;3.706;2022-09-13T09:15:50;100936.31;;;25.51;59.51
32735;BME280;19112;51.076;3.706;2022-09-13T09:20:54;100862.16;;;25.11;59.86
32735;BME280;19112;51.076;3.706;2022-09-13T09:23:36;100741.13;;;24.12;60.50
32735;BME280;19112;51.076;3.706;2022-09-13T09:26:24;100921.63;;;25.31;60.90
32735;BME280;19112;51.076;3.706;2022-09-13T09:29:07;100783.50;;;24.36;61.42
32735;BME280;19112;51.076;3.706;2022-09-13T09:40:32;100936.13;;;25.26;61.88
32735;BME280;19112;51.076;3.706;2022-09-13T09:43:01;100924.25;;;24.97;62.25
32735;BME280;19112;51.076;3.706;2022-09-13T09:45:37;100364.44;;;21.70;62.46
32735;BME280;19112;51.076;3.706;2022-09-13T09:48:10;100844.09;;;24.45;63.10
32735;BME280;19112;51.076;3.706;2022-09-13T09:50:49;100913.78;;;24.88;63.39
32735;BME280;19112;51.076;3.706;2022-09-13T09:53:28;100899.78;;;24.74;63.19
32735;BME280;19112;51.076;3.706;2022-09-13T09:56:24;100883.00;;;24.64;63.38
32735;BME280;19112;51.076;3.706;2022-09-13T09:58:51;100793.75;;;24.17;62.79
32735;BME280;19112;51.076;3.706;2022-09-13T10:01:29;100805.50;;;24.50;62.72
32735;BME280;19112;51.076;3.706;2022-09-13T10:06:39;100881.00;;;25.10;62.29
32735;BME280;19112;51.076;3.706;2022-09-13T10:09:18;100713.91;;;24.27;61.86
32735;BME280;19112;51.076;3.706;2022-09-13T10:11:53;100598.78;;;23.84;60.84
32735;BME280;19112;51.076;3.706;2022-09-13T10:20:03;100515.19;;;24.00;58.57
32735;BME280;19112;51.076;3.706;2022-09-13T10:22:44;100706.44;;;25.05;58.54
32735;BME280;19112;51.076;3.706;2022-09-13T10:25:30;100678.22;;;24.90;58.85
32735;BME280;19112;51.076;3.706;2022-09-13T10:27:57;100703.50;;;25.16;58.88
32735;BME280;19112;51.076;3.706;2022-09-13T10:36:28;100759.47;;;25.60;59.38
32735;BME280;19112;51.076;3.706;2022-09-13T10:41:32;100890.13;;;26.00;59.81
32735;BME280;19112;51.076;3.706;2022-09-13T10:44:02;100763.19;;;25.27;59.85
32735;BME280;19112;51.076;3.706;2022-09-13T10:46:32;100816.00;;;25.59;60.37
32735;BME280;19112;51.076;3.706;2022-09-13T10:49:00;100902.56;;;26.34;60.64
32735;BME280;19112;51.076;3.706;2022-09-13T10:56:32;100825.56;;;25.99;59.92
32735;BME280;19112;51.076;3.706;2022-09-13T11:11:22;100902.16;;;26.48;60.07
32735;BME280;19112;51.076;3.706;2022-09-13T11:23:06;100912.22;;;26.97;58.22
32735;BME280;19112;51.076;3.706;2022-09-13T11:25:54;100918.31;;;27.02;58.01
32735;BME280;19112;51.076;3.706;2022-09-13T11:29:04;100914.19;;;27.19;58.36
32735;BME280;19112;51.076;3.706;2022-09-13T11:37:40;100901.50;;;26.68;58.54
32735;BME280;19112;51.076;3.706;2022-09-13T11:40:43;100866.63;;;26.35;58.10
32735;BME280;19112;51.076;3.706;2022-09-13T11:52:54;100906.31;;;26.84;57.42
32735;BME280;19112;51.076;3.706;2022-09-13T11:58:12;100715.91;;;26.07;57.54
32735;BME280;19112;51.076;3.706;2022-09-13T12:01:03;100862.75;;;26.72;56.40
32735;BME280;19112;51.076;3.706;2022-09-13T12:03:47;100851.03;;;26.46;56.96
32735;BME280;19112;51.076;3.706;2022-09-13T12:08:54;100740.34;;;25.99;58.66
32735;BME280;19112;51.076;3.706;2022-09-13T12:11:30;100760.25;;;25.95;59.15
32735;BME280;19112;51.076;3.706;2022-09-13T12:14:05;100728.69;;;25.71;59.41
32735;BME280;19112;51.076;3.706;2022-09-13T12:16:48;100903.13;;;26.45;59.63
32735;BME280;19112;51.076;3.706;2022-09-13T12:19:43;100804.72;;;25.77;61.47
32735;BME280;19112;51.076;3.706;2022-09-13T12:22:10;100794.31;;;25.36;63.93
32735;BME280;19112;51.076;3.706;2022-09-13T12:24:51;100882.78;;;25.43;66.33
32735;BME280;19112;51.076;3.706;2022-09-13T12:27:58;100905.50;;;25.64;66.84
32735;BME280;19112;51.076;3.706;2022-09-13T12:30:56;100801.41;;;25.04;68.08
32735;BME280;19112;51.076;3.706;2022-09-13T12:33:23;100887.19;;;25.46;69.41
32735;BME280;19112;51.076;3.706;2022-09-13T12:36:16;100901.66;;;25.40;71.39
32735;BME280;19112;51.076;3.706;2022-09-13T12:39:21;100817.19;;;24.82;71.70
32735;BME280;19112;51.076;3.706;2022-09-13T12:44:41;100901.69;;;25.06;75.34
32735;BME280;19112;51.076;3.706;2022-09-13T12:47:48;100854.50;;;24.59;76.15
32735;BME280;19112;51.076;3.706;2022-09-13T12:53:17;100890.13;;;24.65;79.33
32735;BME280;19112;51.076;3.706;2022-09-13T13:01:16;100896.63;;;24.56;81.83
32735;BME280;19112;51.076;3.706;2022-09-13T13:06:56;100865.88;;;24.70;80.38
32735;BME280;19112;51.076;3.706;2022-09-13T13:09:49;100858.31;;;24.86;79.31
32735;BME280;19112;51.076;3.706;2022-09-13T13:12:36;100749.56;;;24.32;79.78
32735;BME280;19112;51.076;3.706;2022-09-13T13:15:06;100892.66;;;25.08;80.50
32735;BME280;19112;51.076;3.706;2022-09-13T13:17:50;100888.16;;;25.11;81.32
32735;BME280;19112;51.076;3.706;2022-09-13T13:26:06;100758.84;;;24.54;78.38
32735;BME280;19112;51.076;3.706;2022-09-13T13:33:58;100914.69;;;25.55;77.39
32735;BME280;19112;51.076;3.706;2022-09-13T13:36:44;100753.97;;;24.36;77.89
32735;BME280;19112;51.076;3.706;2022-09-13T13:41:57;100661.03;;;23.58;79.17
32735;BME280;19112;51.076;3.706;2022-09-13T13:57:58;100893.88;;;24.95;78.65
32735;BME280;19112;51.076;3.706;2022-09-13T14:00:29;100913.78;;;24.87;82.01
32735;BME280;19112;51.076;3.706;2022-09-13T14:03:06;100917.63;;;24.38;83.31
32735;BME280;19112;51.076;3.706;2022-09-13T14:05:48;100909.28;;;24.10;85.22
32735;BME280;19112;51.076;3.706;2022-09-13T14:11:46;100916.41;;;24.11;86.69
32735;BME280;19112;51.076;3.706;2022-09-13T14:20:17;100900.81;;;23.88;88.26
32735;BME280;19112;51.076;3.706;2022-09-13T14:22:44;100927.56;;;23.92;88.63
32735;BME280;19112;51.076;3.706;2022-09-13T14:27:46;100777.19;;;23.15;88.66
32735;BME280;19112;51.076;3.706;2022-09-13T14:30:37;100855.84;;;23.57;89.05
32735;BME280;19112;51.076;3.706;2022-09-13T14:33:04;100848.81;;;23.51;89.57
32735;BME280;19112;51.076;3.706;2022-09-13T14:35:39;100686.56;;;22.45;90.21
32735;BME280;19112;51.076;3.706;2022-09-13T14:38:19;100849.44;;;23.19;91.13
32735;BME280;19112;51.076;3.706;2022-09-13T14:40:52;100739.97;;;22.53;91.81
32735;BME280;19112;51.076;3.706;2022-09-13T14:43:24;100756.56;;;22.72;92.49
32735;BME280;19112;51.076;3.706;2022-09-13T14:46:19;100880.28;;;23.40;92.93
32735;BME280;19112;51.076;3.706;2022-09-13T14:49:00;100717.84;;;22.42;92.78
32735;BME280;19112;51.076;3.706;2022-09-13T14:52:01;100874.38;;;23.21;93.04
32735;BME280;19112;51.076;3.706;2022-09-13T14:54:36;100860.34;;;23.09;94.06
32735;BME280;19112;51.076;3.706;2022-09-13T14:57:07;100798.66;;;22.64;94.15
32735;BME280;19112;51.076;3.706;2022-09-13T14:59:46;100884.38;;;23.13;94.85
32735;BME280;19112;51.076;3.706;2022-09-13T15:02:26;100486.75;;;21.01;94.55
32735;BME280;19112;51.076;3.706;2022-09-13T15:04:57;100623.22;;;21.96;93.73
32735;BME280;19112;51.076;3.706;2022-09-13T15:07:33;100614.25;;;22.01;93.76
32735;BME280;19112;51.076;3.706;2022-09-13T15:12:54;100751.19;;;22.72;93.94
32735;BME280;19112;51.076;3.706;2022-09-13T15:15:31;100673.47;;;22.30;94.65
32735;BME280;19112;51.076;3.706;2022-09-13T15:21:03;100856.09;;;23.43;94.13
32735;BME280;19112;51.076;3.706;2022-09-13T15:23:41;100739.78;;;22.62;94.22
32735;BME280;19112;51.076;3.706;2022-09-13T15:26:20;100778.59;;;22.85;94.73
32735;BME280;19112;51.076;3.706;2022-09-13T15:28:55;100722.09;;;22.54;95.09
32735;BME280;19112;51.076;3.706;2022-09-13T15:31:24;100830.25;;;22.94;94.72
32735;BME280;19112;51.076;3.706;2022-09-13T15:34:22;100783.28;;;22.73;93.53
32735;BME280;19112;51.076;3.706;2022-09-13T15:37:12;100716.41;;;22.22;93.70
32735;BME280;19112;51.076;3.706;2022-09-13T15:39:49;100838.19;;;22.99;94.37
32735;BME280;19112;51.076;3.706;2022-09-13T15:42:26;100631.63;;;21.72;94.08
32735;BME280;19112;51.076;3.706;2022-09-13T15:44:51;100688.13;;;22.05;95.03
32735;BME280;19112;51.076;3.706;2022-09-13T15:47:18;100639.72;;;21.69;94.25
32735;BME280;19112;51.076;3.706;2022-09-13T15:49:49;100838.56;;;22.76;94.42
32735;BME280;19112;51.076;3.706;2022-09-13T15:52:18;100587.81;;;21.25;94.94
32735;BME280;19112;51.076;3.706;2022-09-13T15:54:47;100767.75;;;22.44;94.48
32735;BME280;19112;51.076;3.706;2022-09-13T15:57:28;100830.63;;;22.71;94.14
32735;BME280;19112;51.076;3.706;2022-09-13T15:59:55;100699.88;;;21.96;93.70
32735;BME280;19112;51.076;3.706;2022-09-13T16:02:27;100599.09;;;21.45;94.34
32735;BME280;19112;51.076;3.706;2022-09-13T16:04:55;100696.22;;;22.02;93.99
32735;BME280;19112;51.076;3.706;2022-09-13T16:07:22;100598.28;;;21.40;94.04
32735;BME280;19112;51.076;3.706;2022-09-13T16:09:49;100828.06;;;22.65;93.08
32735;BME280;19112;51.076;3.706;2022-09-13T16:12:15;100763.91;;;22.04;92.23
32735;BME280;19112;51.076;3.706;2022-09-13T16:14:43;100832.75;;;22.51;93.23
32735;BME280;19112;51.076;3.706;2022-09-13T16:17:24;100842.75;;;22.38;92.94
32735;BME280;19112;51.076;3.706;2022-09-13T16:19:51;100498.00;;;20.59;93.02
32735;BME280;19112;51.076;3.706;2022-09-13T16:22:17;100651.72;;;21.40;93.51
32735;BME280;19112;51.076;3.706;2022-09-13T16:24:43;100840.94;;;22.40;93.69
32735;BME280;19112;51.076;3.706;2022-09-13T16:27:13;100691.53;;;21.59;94.60
32735;BME280;19112;51.076;3.706;2022-09-13T16:29:40;100737.72;;;21.67;94.55
32735;BME280;19112;51.076;3.706;2022-09-13T16:32:06;100825.91;;;22.33;94.77
32735;BME280;19112;51.076;3.706;2022-09-13T16:34:32;100827.06;;;22.14;94.43
32735;BME280;19112;51.076;3.706;2022-09-13T16:36:58;100530.38;;;20.30;94.58
32735;BME280;19112;51.076;3.706;2022-09-13T16:39:24;100714.09;;;21.38;94.99
32735;BME280;19112;51.076;3.706;2022-09-13T16:41:49;100540.94;;;20.36;95.64
32735;BME280;19112;51.076;3.706;2022-09-13T16:44:15;100733.75;;;21.32;95.16
32735;BME280;19112;51.076;3.706;2022-09-13T16:46:42;100732.00;;;21.31;95.19